Terminal Aerodrome Forecast
Issued by NWS

Home | Current Version | Previous Version | Text Only | Print | Product List | Glossary On
Versions: 1 2 3 4 5 6 7 8 9 10 11 12 13 14 15 16
119
FTUS45 KREV 241740
TAFMMH
TAF
KMMH 241740Z 2418/2518 25006KT P6SM FEW180
     FM242100 24009KT P6SM BKN180
     FM250000 28010KT P6SM SCT120 OVC180=

USA.gov is the U.S. government's official web portal to all federal, state and local government web resources and services.